Latest Weather Observations for Inner Beacon

IDQ60801

Issued at 9:32 pm EST Sunday 26 April 2015 (issued every 30 minutes, with the page automatically refreshed every 10 minutes)

About weather observations | Map of weather stations | Latest weather observations for QLD | Other Formats
Station Details ID: 040926 Name: INNER RECIPROCAL MARKER Lat: -27.26 Lon: 153.24 Height: 20.0 m
Data from the previous 72 hours. | See also: Recent months for locations in Queensland
Date/Time
EST
Temp
°C
App
Temp
°C
Dew
Point
Rel
Hum
%
Delta-T
°C
Wind Press
QNH
hPa
Press
MSL
hPa
Rain
since 9 am
mm
Dir
 
Spd
km/h
Gust
km/h
Spd
kts
Gust
kts
26/09:00pm - - - - - WSW 39 48 21 26 - - -
26/08:30pm - - - - - W 39 46 21 25 - - -
26/08:00pm - - - - - WSW 37 46 20 25 - - -
26/07:30pm - - - - - WSW 39 46 21 25 - - -
26/07:00pm - - - - - WSW 39 44 21 24 - - -
26/06:30pm - - - - - W 37 43 20 23 - - -
26/06:00pm - - - - - W 37 44 20 24 - - -
26/05:30pm - - - - - WSW 30 39 16 21 - - -
26/05:00pm - - - - - WSW 41 48 22 26 - - -
26/04:30pm - - - - - WSW 41 50 22 27 - - -
26/04:00pm - - - - - WSW 35 41 19 22 - - -
26/03:30pm - - - - - W 39 48 21 26 - - -
26/03:00pm - - - - - W 41 48 22 26 - - -
26/02:30pm - - - - - WSW 44 54 24 29 - - -
26/02:00pm - - - - - WSW 43 52 23 28 - - -
26/01:30pm - - - - - WSW 44 54 24 29 - - -
26/01:00pm - - - - - WSW 57 69 31 37 - - -
26/12:30pm - - - - - WSW 48 57 26 31 - - -
26/12:00pm - - - - - WSW 39 46 21 25 - - -
26/11:30am - - - - - W 41 52 22 28 - - -
26/11:00am - - - - - WSW 39 48 21 26 - - -
26/10:30am - - - - - WSW 41 52 22 28 - - -
26/10:00am - - - - - WSW 44 57 24 31 - - -
26/09:30am - - - - - WSW 43 54 23 29 - - -
26/09:00am - - - - - W 44 57 24 31 - - -
26/08:30am - - - - - W 41 54 22 29 - - -
26/08:00am - - - - - W 33 44 18 24 - - -
26/07:30am - - - - - W 35 46 19 25 - - -
26/07:00am - - - - - W 41 52 22 28 - - -
26/06:30am - - - - - WSW 48 57 26 31 - - -
26/06:00am - - - - - WSW 46 56 25 30 - - -
26/05:30am - - - - - W 41 54 22 29 - - -
26/05:00am - - - - - WSW 41 52 22 28 - - -
26/04:30am - - - - - W 41 48 22 26 - - -
26/04:00am - - - - - WSW 39 48 21 26 - - -
26/03:30am - - - - - W 35 43 19 23 - - -
26/03:00am - - - - - W 30 35 16 19 - - -
26/02:30am - - - - - W 30 33 16 18 - - -
26/02:00am - - - - - W 28 33 15 18 - - -
26/01:30am - - - - - WNW 20 24 11 13 - - -
26/01:00am - - - - - WNW 24 30 13 16 - - -
26/12:30am - - - - - WNW 17 20 9 11 - - -
26/12:00am - - - - - W 17 20 9 11 - - -
 
Date/Time
EST
Temp
°C
App
Temp
°C
Dew
Point
Rel
Hum
%
Delta-T
°C
Wind Press
QNH
hPa
Press
MSL
hPa
Rain
since 9 am
mm
Dir
 
Spd
km/h
Gust
km/h
Spd
kts
Gust
kts
25/11:30pm - - - - - NW 20 22 11 12 - - -
25/11:00pm - - - - - NNW 22 28 12 15 - - -
25/10:30pm - - - - - NNW 24 28 13 15 - - -
25/10:00pm - - - - - NNW 20 24 11 13 - - -
25/09:30pm - - - - - NNW 19 22 10 12 - - -
25/09:00pm - - - - - NNW 19 20 10 11 - - -
25/08:30pm - - - - - N 19 22 10 12 - - -
25/08:00pm - - - - - N 20 22 11 12 - - -
25/07:30pm - - - - - N 17 20 9 11 - - -
25/07:00pm - - - - - NNE 20 24 11 13 - - -
25/06:30pm - - - - - NNE 20 22 11 12 - - -
25/06:00pm - - - - - NNE 19 22 10 12 - - -
25/05:30pm - - - - - NNE 20 24 11 13 - - -
25/05:00pm - - - - - N 19 20 10 11 - - -
25/04:30pm - - - - - NNE 13 17 7 9 - - -
25/04:00pm - - - - - NE 9 11 5 6 - - -
25/03:30pm - - - - - NE 9 11 5 6 - - -
25/03:00pm - - - - - NE 11 13 6 7 - - -
25/02:30pm - - - - - NE 11 11 6 6 - - -
25/02:00pm - - - - - NE 11 13 6 7 - - -
25/01:30pm - - - - - NE 9 11 5 6 - - -
25/01:00pm - - - - - NE 9 11 5 6 - - -
25/12:30pm - - - - - NE 7 7 4 4 - - -
25/12:00pm - - - - - NE 2 6 1 3 - - -
25/11:30am - - - - - CALM 0 0 0 0 - - -
25/11:00am - - - - - CALM 0 0 0 0 - - -
25/10:30am - - - - - WSW 4 4 2 2 - - -
25/10:00am - - - - - WSW 4 6 2 3 - - -
25/09:30am - - - - - SW 7 9 4 5 - - -
25/09:00am - - - - - SW 11 13 6 7 - - -
25/08:30am - - - - - SW 9 11 5 6 - - -
25/08:00am - - - - - SSW 9 11 5 6 - - -
25/07:30am - - - - - SW 11 13 6 7 - - -
25/07:00am - - - - - SSW 6 7 3 4 - - -
25/06:30am - - - - - SSW 7 9 4 5 - - -
25/06:00am - - - - - SSW 11 13 6 7 - - -
25/05:30am - - - - - S 7 9 4 5 - - -
25/05:00am - - - - - SSW 7 9 4 5 - - -
25/04:30am - - - - - WSW 4 6 2 3 - - -
25/04:00am - - - - - W 7 9 4 5 - - -
25/03:30am - - - - - W 9 13 5 7 - - -
25/03:00am - - - - - W 7 9 4 5 - - -
25/02:30am - - - - - NNW 15 17 8 9 - - -
25/02:00am - - - - - NW 15 17 8 9 - - -
25/01:30am - - - - - NNW 19 20 10 11 - - -
25/01:00am - - - - - NNW 19 20 10 11 - - -
25/12:30am - - - - - NNW 22 24 12 13 - - -
25/12:00am - - - - - NNW 26 30 14 16 - - -
 
Date/Time
EST
Temp
°C
App
Temp
°C
Dew
Point
Rel
Hum
%
Delta-T
°C
Wind Press
QNH
hPa
Press
MSL
hPa
Rain
since 9 am
mm
Dir
 
Spd
km/h
Gust
km/h
Spd
kts
Gust
kts
24/11:30pm - - - - - NNW 24 30 13 16 - - -
24/11:00pm - - - - - NNW 20 24 11 13 - - -
24/10:30pm - - - - - NNW 17 20 9 11 - - -
24/10:00pm - - - - - NW 17 19 9 10 - - -
24/09:30pm - - - - - N 20 24 11 13 - - -
24/09:00pm - - - - - N 20 24 11 13 - - -
24/08:30pm - - - - - N 22 26 12 14 - - -
24/08:00pm - - - - - N 22 28 12 15 - - -
24/07:30pm - - - - - N 22 24 12 13 - - -
24/07:00pm - - - - - N 20 24 11 13 - - -
24/06:30pm - - - - - N 19 20 10 11 - - -
24/06:00pm - - - - - NNE 15 19 8 10 - - -
24/05:30pm - - - - - NNE 15 15 8 8 - - -
24/05:00pm - - - - - NNE 13 15 7 8 - - -
24/04:30pm - - - - - NNE 11 13 6 7 - - -
24/04:00pm - - - - - NE 9 11 5 6 - - -
24/03:30pm - - - - - NE 11 11 6 6 - - -
24/03:00pm - - - - - NE 9 11 5 6 - - -
24/02:30pm - - - - - NE 9 11 5 6 - - -
24/02:00pm - - - - - NE 11 13 6 7 - - -
24/01:30pm - - - - - NE 9 11 5 6 - - -
24/01:00pm - - - - - NE 7 7 4 4 - - -
24/12:30pm - - - - - NNW 7 9 4 5 - - -
24/12:00pm - - - - - CALM 0 0 0 0 - - -
24/11:30am - - - - - CALM 0 2 0 1 - - -
24/11:00am - - - - - WSW 4 6 2 3 - - -
24/10:30am - - - - - WSW 4 6 2 3 - - -
24/10:00am - - - - - WSW 7 9 4 5 - - -
24/09:30am - - - - - SW 6 9 3 5 - - -
24/09:00am - - - - - SW 9 9 5 5 - - -
24/08:30am - - - - - SW 9 11 5 6 - - -
24/08:00am - - - - - SW 11 13 6 7 - - -
24/07:30am - - - - - SW 7 9 4 5 - - -
24/07:00am - - - - - SW 9 11 5 6 - - -
24/06:30am - - - - - SW 9 13 5 7 - - -
24/06:00am - - - - - SSW 7 11 4 6 - - -
24/05:30am - - - - - SSW 9 11 5 6 - - -
24/05:00am - - - - - S 7 11 4 6 - - -
24/04:30am - - - - - SW 11 13 6 7 - - -
24/04:00am - - - - - SW 11 13 6 7 - - -
24/03:30am - - - - - WSW 11 13 6 7 - - -
24/03:00am - - - - - WSW 15 19 8 10 - - -
24/02:30am - - - - - WSW 13 15 7 8 - - -
24/02:00am - - - - - W 11 15 6 8 - - -
24/01:30am - - - - - W 13 15 7 8 - - -
24/01:00am - - - - - W 13 15 7 8 - - -
24/12:30am - - - - - W 11 13 6 7 - - -
24/12:00am - - - - - W 13 15 7 8 - - -
 
Date/Time
EST
Temp
°C
App
Temp
°C
Dew
Point
Rel
Hum
%
Delta-T
°C
Wind Press
QNH
hPa
Press
MSL
hPa
Rain
since 9 am
mm
Dir
 
Spd
km/h
Gust
km/h
Spd
kts
Gust
kts
23/11:30pm - - - - - W 15 17 8 9 - - -
23/11:00pm - - - - - W 17 19 9 10 - - -
23/10:30pm - - - - - WNW 6 11 3 6 - - -
23/10:00pm - - - - - NE 4 6 2 3 - - -

Other Formats:

Comma delimited format used in spreadsheet applications
http://www.bom.gov.au/fwo/IDQ60801/IDQ60801.94590.axf

JavaScript Object Notation format (JSON) in row-major order
http://www.bom.gov.au/fwo/IDQ60801/IDQ60801.94590.json